Estación municipal de Arbúcies (La Selva, Parc natural del Montseny)

Consulta los datos en tiempo real de la estación municipal de Arbúcies





Hora UTC 19:45
Temperatura 14.0 ºC
Humedad 83.0 %
Presión 1022.0 hPa
Pluja 0.0 mm
Velocidad viento 0.0 km/h
Dirección viento E
Radiación solar 0.0 W/m²

Datos diarios 2026-05-03



Hora UTC (invierno +1h; verano +2h)
Temperatura (ºC) Humedad (%) Presión (hPa) Velocidad viento (km/h) Precipitación (mm) Radiación solar (W/m²)
Hora UTC Aire Humedad Presión Vel. Dir. Vel. Max Dir. Intent. máx 5 min. Rad. Sol.
00:05 11.6 75.4 1026.0 0.1 SSW 4.9 SW 0.0 0.0
00:10 11.7 75.7 1026.0 0.0 SW 0.4 SSW 0.0 0.0
00:15 11.6 76.2 1025.0 0.0 SW 0.4 SW 0.0 0.0
00:20 11.7 75.6 1026.0 0.0 SSW 0.4 SW 0.0 0.0
00:25 11.9 74.0 1025.0 0.0 SSW 0.4 S 0.0 0.0
00:30 11.9 73.8 1026.0 0.0 SW 1.8 SW 0.0 0.0
00:35 12.0 73.6 1026.0 0.0 SW 0.4 SSW 0.0 0.0
00:40 12.0 73.8 1025.0 0.0 SSW 0.4 SW 0.0 0.0
00:45 12.0 73.5 1026.0 0.0 SSW 0.4 S 0.0 0.0
00:50 12.0 74.2 1025.0 0.0 SW 0.4 WSW 0.0 0.0
00:55 11.9 74.7 1025.0 0.0 SSW 0.4 WSW 0.0 0.0
01:00 12.0 74.4 1026.0 0.0 SSW 0.4 SSE 0.0 0.0
01:05 12.0 75.1 1025.0 0.0 SSW 0.4 SW 0.0 0.0
01:10 12.1 75.3 1025.0 0.8 SW 7.1 WSW 0.0 0.0
01:15 12.2 74.4 1025.0 0.6 SSW 9.2 SSW 0.0 0.0
01:20 12.3 74.6 1025.0 0.1 SSW 2.8 SSW 0.0 0.0
01:25 12.2 74.6 1025.0 0.0 SW 0.4 SSW 0.0 0.0
01:30 12.2 75.1 1026.0 0.0 SW 0.4 SW 0.0 0.0
01:35 12.3 75.0 1025.0 0.0 SSW 0.4 SSW 0.0 0.0
01:40 12.3 75.1 1025.0 0.0 SSW 0.4 SSW 0.0 0.0
01:45 12.3 75.6 1025.0 0.0 SW 0.4 SW 0.0 0.0
01:50 12.2 76.3 1025.0 0.0 WSW 0.4 WSW 0.0 0.0
01:55 12.2 76.6 1024.0 0.0 WSW 0.4 SW 0.0 0.0
02:00 12.2 76.7 1025.0 0.0 WSW 0.4 W 0.0 0.0
02:05 12.1 77.0 1024.0 0.0 SW 0.4 SW 0.0 0.0
02:10 11.9 77.6 1024.0 0.0 SW 0.4 WSW 0.0 0.0
02:15 11.9 78.0 1025.0 0.0 SW 0.7 SW 0.0 0.0
02:20 11.9 78.3 1025.0 0.0 SSW 0.4 SW 0.0 0.0
02:25 12.0 78.3 1025.0 0.0 SSW 0.4 WSW 0.0 0.0
02:30 12.0 78.0 1025.0 0.0 WSW 0.4 SW 0.0 0.0
02:35 12.0 78.5 1024.0 0.0 SSW 0.4 SW 0.0 0.0
02:40 11.9 79.1 1024.0 0.0 SW 0.4 SSW 0.0 0.0
02:45 11.7 79.9 1024.0 0.0 SW 0.4 SW 0.0 0.0
02:50 11.6 80.7 1024.0 0.0 SW 0.4 SW 0.0 0.0
02:55 11.5 81.3 1024.0 0.0 SW 0.4 SW 0.0 0.0
03:00 11.4 81.7 1025.0 0.0 SW 0.4 SW 0.0 0.0
03:05 11.3 82.1 1025.0 0.0 SSW 0.4 SW 0.0 0.0
03:10 11.3 82.4 1024.0 0.0 SW 0.4 SSW 0.0 0.0
03:15 11.2 82.3 1024.0 0.0 SW 0.4 SSW 0.0 0.0
03:20 11.1 83.1 1024.0 0.2 SSW 5.3 SSW 0.0 0.0
03:25 11.3 83.6 1024.0 0.0 SSW 1.1 SW 0.0 0.0
03:30 11.4 83.2 1025.0 0.0 SSW 0.4 SW 0.0 0.0
03:35 11.5 82.9 1024.0 0.0 SSW 0.4 SW 0.0 0.0
03:40 11.4 83.1 1024.0 0.0 SSW 0.4 SSW 0.0 0.0
03:45 11.3 83.1 1024.0 0.0 WSW 0.4 SW 0.0 0.0
03:50 11.1 83.4 1024.0 0.0 WSW 0.4 WNW 0.0 0.0
03:55 11.0 83.7 1024.0 0.0 SW 0.4 SSW 0.0 0.0
04:00 10.9 84.3 1025.0 0.0 SW 0.4 WSW 0.0 0.0
04:05 10.9 84.8 1024.0 0.0 SW 0.4 SSW 0.0 0.0
04:10 10.8 84.8 1024.0 0.0 SW 0.4 SW 0.0 0.0
04:15 10.7 85.3 1024.0 0.0 SW 0.4 SW 0.0 0.0
04:20 10.6 85.4 1024.0 0.0 WSW 0.4 W 0.0 0.0
04:25 10.5 85.8 1024.0 0.0 WSW 0.4 SW 0.0 0.0
04:30 10.5 86.2 1025.0 0.0 WSW 0.4 W 0.0 0.0
04:35 10.4 86.4 1024.0 0.0 SW 0.4 WSW 0.0 0.0
04:40 10.4 86.6 1024.0 0.0 W 0.4 WSW 0.0 0.0
04:45 10.3 86.8 1024.0 0.0 SW 0.4 SSW 0.0 0.9
04:50 10.3 87.0 1024.0 0.0 SW 0.4 WSW 0.0 2.2
04:55 10.3 87.2 1024.0 0.0 WSW 0.4 W 0.0 5.1
05:00 10.2 87.3 1025.0 0.0 SW 0.4 SSW 0.0 11.6
05:05 10.1 87.5 1024.0 0.0 WSW 0.4 W 0.0 17.7
05:10 10.1 87.8 1024.0 0.0 SW 0.4 SW 0.0 20.8
05:15 10.2 88.2 1024.0 0.0 SSW 0.4 SSW 0.0 22.1
05:20 10.3 88.1 1024.0 0.0 SW 0.4 SW 0.0 23.5
05:25 10.3 88.2 1024.0 0.0 SSW 0.4 S 0.0 28.7
05:30 10.4 88.2 1025.0 0.9 SSW 8.1 SSW 0.0 34.1
05:35 10.6 87.4 1024.0 0.0 SSW 0.4 SSW 0.0 40.1
05:40 10.7 86.6 1024.0 0.0 SW 0.4 SW 0.0 49.2
05:45 10.7 86.4 1024.0 0.0 SSW 0.4 SSW 0.0 65.8
05:50 10.8 85.7 1024.0 0.0 SSW 0.4 S 0.0 88.8
05:55 11.1 84.7 1024.0 0.0 SSW 0.4 SSW 0.0 105.3
06:00 11.2 83.2 1025.0 0.0 SSW 0.4 SSW 0.0 122.5
06:05 11.5 82.0 1024.0 0.0 SSW 0.4 SW 0.0 121.4
06:10 11.8 80.4 1024.0 0.0 SSW 0.4 SSW 0.0 129.2
06:15 11.9 78.7 1024.0 0.0 SSW 0.4 S 0.0 146.2
06:20 12.2 77.7 1024.0 0.0 SSW 0.4 SSW 0.0 136.5
06:25 12.5 78.0 1024.0 0.0 SSW 0.4 SW 0.0 146.1
06:30 12.6 76.7 1024.0 0.0 SSW 0.4 SW 0.0 149.1
06:35 12.8 75.7 1024.0 0.0 SSW 0.4 SSW 0.0 152.0
06:40 13.2 75.3 1024.0 0.0 SSW 0.4 SSW 0.0 172.6
06:45 13.6 74.5 1024.0 0.0 SSW 0.4 SSW 0.0 180.0
06:50 14.0 73.4 1024.0 0.0 ESE 0.4 E 0.0 199.8
06:55 14.2 72.5 1024.0 0.0 W 0.4 SW 0.0 187.8
07:00 14.5 72.3 1024.0 0.0 NNE 0.4 W 0.0 173.6
07:05 14.6 73.0 1024.0 0.0 ENE 0.7 NE 0.0 186.3
07:10 14.9 73.0 1024.0 0.0 E 0.4 NE 0.0 175.6
07:15 14.9 72.5 1024.0 0.0 ENE 0.4 NE 0.0 182.6
07:20 14.9 72.8 1024.0 0.0 ENE 0.4 ENE 0.0 202.6
07:25 15.1 73.0 1024.0 0.0 NNE 0.4 NE 0.0 205.8
07:30 15.0 72.5 1025.0 0.0 ENE 0.4 NNE 0.0 220.1
07:35 14.9 73.5 1024.0 0.0 NE 0.4 E 0.0 239.3
07:40 15.2 73.6 1024.0 0.0 NNE 0.4 NNE 0.0 245.4
07:45 15.0 72.9 1024.0 0.0 ENE 0.4 ENE 0.0 229.2
07:50 14.9 73.4 1024.0 0.0 NE 0.4 E 0.0 235.2
07:55 15.1 73.4 1024.0 0.0 NNE 0.4 N 0.0 257.7
08:00 15.3 73.0 1024.0 0.0 ENE 0.4 SE 0.0 281.0
08:05 15.5 71.8 1024.0 0.0 ENE 0.4 NE 0.0 285.3
08:10 15.5 71.1 1024.0 0.0 ENE 0.4 NE 0.0 269.3
08:15 15.7 71.1 1023.0 0.0 NNE 0.4 NE 0.0 255.0
08:20 15.9 70.2 1024.0 0.0 ENE 0.4 ENE 0.0 255.8
08:25 15.9 69.7 1024.0 0.0 ENE 0.4 ENE 0.0 257.3
08:30 15.9 70.2 1024.0 0.0 NE 0.4 NE 0.0 292.6
08:35 16.0 70.6 1023.0 0.0 ENE 0.7 NE 0.0 335.8
08:40 16.1 69.8 1024.0 0.0 ENE 0.4 ENE 0.0 315.2
08:45 16.2 69.0 1024.0 1.3 ENE 8.5 ENE 0.0 296.8
08:50 16.1 68.3 1024.0 1.7 ENE 9.9 NE 0.0 279.9
08:55 16.1 68.3 1024.0 2.1 NE 10.2 NE 0.0 302.2
09:00 16.3 68.1 1024.0 0.1 ENE 3.2 ENE 0.0 332.1
09:05 16.6 66.3 1024.0 0.1 ENE 4.2 NE 0.0 377.2
09:10 16.8 65.1 1024.0 1.7 ENE 10.2 NE 0.0 391.7
09:15 16.8 64.3 1024.0 1.5 NE 9.5 ENE 0.0 388.1
09:20 16.8 63.2 1024.0 3.6 ENE 12.0 ENE 0.0 344.9
09:25 16.7 63.1 1024.0 1.4 NE 9.9 NE 0.0 345.2
09:30 16.7 62.1 1024.0 2.4 NE 12.0 NE 0.0 348.2
09:35 16.9 62.0 1024.0 2.1 NE 11.3 NE 0.0 358.2
09:40 17.0 62.9 1024.0 1.4 NE 8.8 NE 0.0 349.5
09:45 16.8 62.6 1024.0 2.0 ENE 12.0 NE 0.0 346.5
09:50 17.0 63.0 1024.0 2.7 NE 13.8 ENE 0.0 400.5
09:55 17.0 62.9 1024.0 4.5 NE 17.6 NE 0.0 425.3
10:00 17.1 62.5 1025.0 2.4 NE 9.2 ENE 0.0 366.8
10:05 17.1 63.8 1024.0 4.4 NE 12.0 NE 0.0 338.2
10:10 17.2 64.1 1024.0 2.9 NE 14.1 NE 0.0 345.6
10:15 17.0 65.3 1024.0 3.9 NE 10.9 NE 0.0 281.4
10:20 16.9 66.2 1024.0 2.8 NE 15.9 ENE 0.0 254.9
10:25 16.9 66.8 1024.0 2.7 NE 10.6 NE 0.0 333.3
10:30 16.9 66.4 1025.0 2.5 NE 13.4 ENE 0.0 347.5
10:35 17.0 66.7 1024.0 2.0 NE 13.4 ENE 0.0 366.3
10:40 17.2 66.6 1024.0 0.9 NE 10.2 NE 0.0 314.3
10:45 17.1 65.8 1024.0 0.1 NNE 2.8 NE 0.0 275.2
10:50 17.1 65.7 1024.0 0.6 NE 8.5 NE 0.0 274.1
10:55 17.1 66.0 1024.0 3.1 NE 14.8 NE 0.0 270.4
11:00 17.1 66.1 1024.0 2.8 NE 12.3 NE 0.0 333.0
11:05 17.2 65.3 1023.0 5.8 ENE 21.2 ENE 0.0 317.3
11:10 17.0 65.3 1024.0 3.1 ENE 16.2 ENE 0.0 245.9
11:15 17.1 65.9 1024.0 0.4 NE 7.4 NE 0.0 256.8
11:20 17.2 64.1 1024.0 1.8 NE 12.3 NE 0.0 237.6
11:25 17.2 64.0 1024.0 2.1 NE 12.7 NE 0.0 385.0
11:30 17.3 63.0 1024.0 6.5 ENE 17.6 ENE 0.0 552.6
11:35 17.8 62.4 1023.0 3.6 NE 15.2 NE 0.0 593.0
11:40 18.1 60.7 1023.0 7.2 NE 16.6 ENE 0.0 897.0
11:45 18.6 60.0 1023.0 5.1 NE 15.2 NE 0.0 851.0
11:50 18.4 59.7 1023.0 6.0 NE 18.0 ENE 0.0 677.7
11:55 18.3 60.4 1023.0 4.5 NE 18.0 NE 0.0 760.1
12:00 18.3 60.3 1024.0 6.2 NE 17.3 NNE 0.0 550.1
12:05 18.2 60.7 1023.0 2.2 NE 14.8 NNE 0.0 431.5
12:10 18.1 60.9 1023.0 5.2 NE 18.7 ENE 0.0 488.5
12:15 18.1 60.5 1023.0 3.5 ENE 18.3 E 0.0 628.3
12:20 18.4 59.7 1023.0 6.7 NE 21.9 ENE 0.0 595.2
12:25 18.3 59.2 1023.0 5.0 NE 18.3 NE 0.0 661.8
12:30 18.4 57.9 1023.0 0.3 E 7.1 ENE 0.0 583.5
12:35 18.3 57.8 1023.0 10.7 ENE 21.2 ENE 0.0 460.0
12:40 18.1 58.4 1023.0 4.4 NE 15.5 ENE 0.0 413.8
12:45 17.9 58.6 1023.0 5.8 NE 16.6 NE 0.0 376.5
12:50 17.9 58.7 1022.0 10.3 NE 19.1 ENE 0.0 335.6
12:55 17.8 59.5 1023.0 3.0 NE 14.8 ENE 0.0 307.2
13:00 17.8 59.1 1023.0 4.5 ENE 15.9 ENE 0.0 330.7
13:05 17.9 58.8 1023.0 5.1 NE 17.3 NE 0.0 299.4
13:10 17.9 58.8 1023.0 2.2 ENE 11.6 ENE 0.0 266.6
13:15 17.9 59.6 1023.0 4.2 ENE 15.2 NNE 0.0 277.5
13:20 17.8 60.7 1022.0 0.5 ENE 8.5 ENE 0.0 317.5
13:25 17.9 61.2 1023.0 2.3 NE 15.5 ENE 0.0 244.9
13:30 17.6 62.5 1023.0 2.5 NE 14.5 NE 0.0 194.5
13:35 17.5 63.2 1022.0 1.5 NE 11.3 NE 0.0 152.6
13:40 17.3 63.4 1023.0 3.9 ENE 15.9 ENE 0.0 158.1
13:45 17.1 63.3 1022.0 4.1 NE 14.1 ENE 0.0 205.1
13:50 17.2 63.1 1022.0 1.9 ENE 12.0 NE 0.0 274.5
13:55 17.4 63.2 1022.0 1.3 NE 12.3 NNE 0.0 303.2
14:00 17.7 62.7 1023.0 1.9 ENE 12.0 NE 0.0 323.4
14:05 17.7 62.9 1022.0 7.0 NE 18.3 NE 0.0 338.1
14:10 17.6 63.7 1022.0 5.0 NE 15.9 ENE 0.0 454.5
14:15 18.0 62.9 1022.0 1.6 NE 13.1 NE 0.0 478.8
14:20 18.1 61.9 1022.0 5.5 ENE 18.0 ENE 0.0 550.0
14:25 18.1 62.5 1022.0 3.0 NE 12.0 ESE 0.0 472.1
14:30 18.0 62.5 1022.0 7.3 ENE 21.5 ENE 0.0 431.1
14:35 17.7 63.2 1022.0 3.4 ENE 14.5 E 0.0 344.4
14:40 17.8 62.9 1022.0 3.1 ENE 12.3 ENE 0.0 408.8
14:45 17.9 62.2 1022.0 5.1 ENE 14.8 NE 0.0 455.3
14:50 18.1 61.6 1021.0 4.2 NE 13.8 ENE 0.0 535.2
14:55 17.9 61.0 1021.0 4.5 ENE 17.3 ENE 0.0 323.7
15:00 17.9 62.2 1022.0 6.5 NE 19.4 NE 0.0 521.7
15:05 18.1 62.0 1021.0 8.5 NE 20.8 ENE 0.0 529.3
15:10 18.0 61.1 1021.0 6.9 NE 15.2 NE 0.0 414.1
15:15 17.7 62.5 1021.0 3.9 ENE 16.9 NE 0.0 257.5
15:20 17.5 64.4 1021.0 6.6 ENE 18.0 ENE 0.0 273.1
15:25 17.2 67.1 1021.0 4.6 ENE 13.8 E 0.0 239.8
15:30 17.1 67.6 1022.0 2.2 ENE 11.6 NE 0.0 216.2
15:35 17.0 67.7 1021.0 3.9 ENE 15.2 NE 0.0 182.9
15:40 16.7 68.7 1021.0 4.4 ENE 14.1 NE 0.0 133.8
15:45 16.5 69.4 1021.0 0.5 ENE 7.8 E 0.0 96.5
15:50 16.3 69.5 1021.0 1.6 ENE 10.9 ENE 0.0 71.8
15:55 16.2 70.4 1021.0 0.1 ESE 3.2 E 0.0 53.2
16:00 16.1 70.8 1022.0 1.7 ENE 10.2 ENE 0.0 35.1
16:05 15.8 72.0 1021.0 2.5 ENE 12.0 ENE 0.0 29.7
16:10 15.6 73.9 1022.0 0.0 ENE 0.4 ENE 0.0 26.6
16:15 15.4 74.5 1022.0 0.0 ENE 1.8 ENE 0.0 26.8
16:20 15.1 75.5 1022.0 0.0 ENE 0.7 NNE 0.0 29.2
16:25 14.8 76.0 1022.0 0.2 ENE 6.4 ENE 0.0 27.9
16:30 14.7 76.7 1022.0 0.0 NE 0.7 ENE 0.0 34.8
16:35 14.6 76.9 1022.0 1.0 ENE 9.9 ENE 0.0 41.1
16:40 14.5 76.7 1022.0 0.7 ENE 8.8 ENE 0.0 51.4
16:45 14.5 76.6 1022.0 0.0 NE 0.7 NE 0.0 61.1
16:50 14.6 77.1 1022.0 0.0 N 0.4 N 0.0 62.0
16:55 14.6 76.8 1022.0 0.0 ENE 0.4 NW 0.0 47.3
17:00 14.6 76.6 1022.0 0.0 ENE 0.4 NNE 0.0 57.6
17:05 14.7 76.4 1022.0 0.0 N 0.4 NE 0.0 57.1
17:10 14.6 75.9 1022.0 0.0 E 0.4 ESE 0.0 41.0
17:15 14.6 76.0 1021.0 0.0 N 0.4 NW 0.0 21.8
17:20 14.7 76.4 1021.0 0.0 WNW 0.4 NNE 0.0 19.1
17:25 14.6 76.9 1021.0 0.0 ENE 0.4 NW 0.0 20.6
17:30 14.5 77.4 1022.0 0.0 NNE 0.4 NE 0.0 23.3
17:35 14.5 78.0 1021.0 0.0 NE 0.4 ENE 0.0 31.8
17:40 14.6 78.4 1021.0 0.0 NNE 0.4 NE 0.0 39.1
17:45 14.6 78.7 1022.0 0.0 NNE 0.4 N 0.0 36.4
17:50 14.6 78.8 1021.0 0.0 NE 0.4 ENE 0.0 33.6
17:55 14.5 78.9 1021.0 0.0 NE 0.4 NE 0.0 29.4
18:00 14.5 79.3 1022.0 0.0 NNE 0.4 N 0.0 21.1
18:05 14.4 79.4 1021.0 0.0 NE 0.4 ENE 0.0 21.5
18:10 14.4 79.7 1021.0 0.0 NE 0.4 ENE 0.0 21.6
18:15 14.4 79.8 1021.0 0.0 NE 0.7 NNE 0.0 22.1
18:20 14.4 80.0 1021.0 0.0 NE 0.4 NE 0.0 20.6
18:25 14.3 80.1 1022.0 0.0 NNE 0.4 N 0.0 15.5
18:30 14.3 80.2 1022.0 0.0 N 0.4 N 0.0 11.1
18:35 14.3 80.2 1022.0 0.0 NNW 0.4 N 0.0 7.8
18:40 14.2 80.3 1021.0 0.0 NNW 0.4 NNW 0.0 4.8
18:45 14.2 80.3 1021.0 0.0 N 0.4 NNW 0.0 2.5
18:50 14.2 80.3 1021.0 0.0 NNE 0.4 NE 0.0 1.2
18:55 14.2 80.4 1022.0 0.0 ENE 0.4 NE 0.0 0.6
19:00 14.2 80.6 1022.0 0.0 WNW 0.4 NNE 0.0 0.2
19:05 14.2 80.9 1022.0 0.0 WSW 0.4 W 0.0 0.0
19:10 14.1 81.3 1022.0 0.0 SW 0.4 SW 0.0 0.0
19:15 14.0 81.7 1022.0 0.0 SW 0.4 SW 0.0 0.0
19:20 14.0 82.0 1021.0 0.0 WSW 0.7 WSW 0.0 0.0
19:25 14.1 82.3 1022.0 0.0 W 0.4 W 0.0 0.0
19:30 14.0 82.3 1022.0 0.0 W 0.4 W 0.0 0.0
19:35 14.0 82.6 1022.0 0.0 W 0.4 W 0.0 0.0
19:40 14.0 82.7 1022.0 0.0 WSW 0.7 W 0.0 0.0
19:45 14.0 83.0 1022.0 0.0 E 0.4 SSW 0.0 0.0
Máxima 18.6 88.2 1026.0 10.7 ENE 21.9 ENE 0.0 897.0
Mínima 10.1 57.8 1021.0
Total 0.0